sensor_id;sensor_type;location;lat;lon;timestamp;temperature;humidity
10247;DHT22;5168;47.854;7.944;2022-12-20T00:01:50;6.80;99.90
10247;DHT22;5168;47.854;7.944;2022-12-20T00:04:16;6.90;99.90
10247;DHT22;5168;47.854;7.944;2022-12-20T00:06:41;6.80;99.90
10247;DHT22;5168;47.854;7.944;2022-12-20T00:09:08;6.80;99.90
10247;DHT22;5168;47.854;7.944;2022-12-20T00:11:34;6.70;99.90
10247;DHT22;5168;47.854;7.944;2022-12-20T00:14:00;6.80;99.90
10247;DHT22;5168;47.854;7.944;2022-12-20T00:16:27;6.70;99.90
10247;DHT22;5168;47.854;7.944;2022-12-20T00:18:56;6.60;99.90
10247;DHT22;5168;47.854;7.944;2022-12-20T00:21:22;6.60;99.90
10247;DHT22;5168;47.854;7.944;2022-12-20T00:23:48;6.70;99.90
10247;DHT22;5168;47.854;7.944;2022-12-20T00:26:17;6.80;99.90
10247;DHT22;5168;47.854;7.944;2022-12-20T00:28:44;6.90;99.90
10247;DHT22;5168;47.854;7.944;2022-12-20T00:31:11;6.80;99.90
10247;DHT22;5168;47.854;7.944;2022-12-20T00:33:38;6.90;99.90
10247;DHT22;5168;47.854;7.944;2022-12-20T00:36:04;7.00;99.90
10247;DHT22;5168;47.854;7.944;2022-12-20T00:38:30;7.00;99.90
10247;DHT22;5168;47.854;7.944;2022-12-20T00:41:20;6.90;99.90
10247;DHT22;5168;47.854;7.944;2022-12-20T00:43:46;6.90;99.90
10247;DHT22;5168;47.854;7.944;2022-12-20T00:46:15;6.90;99.90
10247;DHT22;5168;47.854;7.944;2022-12-20T00:48:41;7.00;99.90
10247;DHT22;5168;47.854;7.944;2022-12-20T00:51:09;7.00;99.90
10247;DHT22;5168;47.854;7.944;2022-12-20T00:53:35;7.00;99.90
10247;DHT22;5168;47.854;7.944;2022-12-20T00:56:02;6.90;99.90
10247;DHT22;5168;47.854;7.944;2022-12-20T00:58:28;7.00;99.90
10247;DHT22;5168;47.854;7.944;2022-12-20T01:00:54;7.00;99.90
10247;DHT22;5168;47.854;7.944;2022-12-20T01:03:20;7.00;99.90
10247;DHT22;5168;47.854;7.944;2022-12-20T01:06:00;6.90;99.90
10247;DHT22;5168;47.854;7.944;2022-12-20T01:08:27;7.10;99.90
10247;DHT22;5168;47.854;7.944;2022-12-20T01:11:07;7.00;99.90
10247;DHT22;5168;47.854;7.944;2022-12-20T01:13:34;6.90;99.90
10247;DHT22;5168;47.854;7.944;2022-12-20T01:16:05;6.90;99.90
10247;DHT22;5168;47.854;7.944;2022-12-20T01:18:31;6.80;99.90
10247;DHT22;5168;47.854;7.944;2022-12-20T01:21:05;6.90;99.90
10247;DHT22;5168;47.854;7.944;2022-12-20T01:23:31;6.80;99.90
10247;DHT22;5168;47.854;7.944;2022-12-20T01:25:58;6.70;99.90
10247;DHT22;5168;47.854;7.944;2022-12-20T01:28:24;6.70;99.90
10247;DHT22;5168;47.854;7.944;2022-12-20T01:30:49;6.70;99.90
10247;DHT22;5168;47.854;7.944;2022-12-20T01:33:15;6.60;99.90
10247;DHT22;5168;47.854;7.944;2022-12-20T01:35:40;6.60;99.90
10247;DHT22;5168;47.854;7.944;2022-12-20T01:38:06;6.50;99.90
10247;DHT22;5168;47.854;7.944;2022-12-20T01:40:31;6.50;99.90
10247;DHT22;5168;47.854;7.944;2022-12-20T01:42:57;6.40;99.90
10247;DHT22;5168;47.854;7.944;2022-12-20T01:45:28;6.30;99.90
10247;DHT22;5168;47.854;7.944;2022-12-20T01:47:55;6.40;99.90
10247;DHT22;5168;47.854;7.944;2022-12-20T01:50:22;6.30;99.90
10247;DHT22;5168;47.854;7.944;2022-12-20T01:52:48;6.30;99.90
10247;DHT22;5168;47.854;7.944;2022-12-20T01:55:32;6.40;99.90
10247;DHT22;5168;47.854;7.944;2022-12-20T01:58:01;6.40;99.90
10247;DHT22;5168;47.854;7.944;2022-12-20T02:00:29;6.40;99.90
10247;DHT22;5168;47.854;7.944;2022-12-20T02:02:58;6.40;99.90
10247;DHT22;5168;47.854;7.944;2022-12-20T02:05:25;6.40;99.90
10247;DHT22;5168;47.854;7.944;2022-12-20T02:07:53;6.40;99.90
10247;DHT22;5168;47.854;7.944;2022-12-20T02:10:23;6.50;99.90
10247;DHT22;5168;47.854;7.944;2022-12-20T02:12:58;6.50;99.90
10247;DHT22;5168;47.854;7.944;2022-12-20T02:18:15;6.50;99.90
10247;DHT22;5168;47.854;7.944;2022-12-20T02:21:04;6.60;99.90
10247;DHT22;5168;47.854;7.944;2022-12-20T02:29:35;6.60;99.90
10247;DHT22;5168;47.854;7.944;2022-12-20T02:32:16;6.50;99.90
10247;DHT22;5168;47.854;7.944;2022-12-20T02:34:44;6.50;99.90
10247;DHT22;5168;47.854;7.944;2022-12-20T02:37:10;6.50;99.90
10247;DHT22;5168;47.854;7.944;2022-12-20T02:39:38;6.60;99.90
10247;DHT22;5168;47.854;7.944;2022-12-20T02:42:06;6.60;99.90
10247;DHT22;5168;47.854;7.944;2022-12-20T02:44:37;6.50;99.90
10247;DHT22;5168;47.854;7.944;2022-12-20T02:47:28;6.50;99.90
10247;DHT22;5168;47.854;7.944;2022-12-20T02:49:56;6.50;99.90
10247;DHT22;5168;47.854;7.944;2022-12-20T02:52:24;6.50;99.90
10247;DHT22;5168;47.854;7.944;2022-12-20T02:54:54;6.40;99.90
10247;DHT22;5168;47.854;7.944;2022-12-20T02:57:28;6.40;99.90
10247;DHT22;5168;47.854;7.944;2022-12-20T03:00:04;6.40;99.90
10247;DHT22;5168;47.854;7.944;2022-12-20T03:02:31;6.50;99.90
10247;DHT22;5168;47.854;7.944;2022-12-20T03:05:19;6.60;99.90
10247;DHT22;5168;47.854;7.944;2022-12-20T03:07:46;6.50;99.90
10247;DHT22;5168;47.854;7.944;2022-12-20T03:10:11;6.50;99.90
10247;DHT22;5168;47.854;7.944;2022-12-20T03:12:37;6.50;99.90
10247;DHT22;5168;47.854;7.944;2022-12-20T03:15:03;6.50;99.90
10247;DHT22;5168;47.854;7.944;2022-12-20T03:17:28;6.50;99.90
10247;DHT22;5168;47.854;7.944;2022-12-20T03:19:54;6.50;99.90
10247;DHT22;5168;47.854;7.944;2022-12-20T03:22:19;6.50;99.90
10247;DHT22;5168;47.854;7.944;2022-12-20T03:24:45;6.50;99.90
10247;DHT22;5168;47.854;7.944;2022-12-20T03:27:10;6.60;99.90
10247;DHT22;5168;47.854;7.944;2022-12-20T03:29:36;6.60;99.90
10247;DHT22;5168;47.854;7.944;2022-12-20T03:32:02;6.70;99.90
10247;DHT22;5168;47.854;7.944;2022-12-20T03:34:28;6.60;99.90
10247;DHT22;5168;47.854;7.944;2022-12-20T03:36:54;6.80;99.90
10247;DHT22;5168;47.854;7.944;2022-12-20T03:39:19;6.60;99.90
10247;DHT22;5168;47.854;7.944;2022-12-20T03:41:45;6.60;99.90
10247;DHT22;5168;47.854;7.944;2022-12-20T03:44:10;6.60;99.90
10247;DHT22;5168;47.854;7.944;2022-12-20T03:46:36;6.60;99.90
10247;DHT22;5168;47.854;7.944;2022-12-20T03:49:02;6.60;99.90
10247;DHT22;5168;47.854;7.944;2022-12-20T03:51:27;6.60;99.90
10247;DHT22;5168;47.854;7.944;2022-12-20T03:53:53;6.60;99.90
10247;DHT22;5168;47.854;7.944;2022-12-20T03:56:18;6.60;99.90
10247;DHT22;5168;47.854;7.944;2022-12-20T03:58:44;6.60;99.90
10247;DHT22;5168;47.854;7.944;2022-12-20T04:01:21;6.60;99.90
10247;DHT22;5168;47.854;7.944;2022-12-20T04:03:47;6.50;99.90
10247;DHT22;5168;47.854;7.944;2022-12-20T04:06:13;6.50;99.90
10247;DHT22;5168;47.854;7.944;2022-12-20T04:08:38;6.50;99.90
10247;DHT22;5168;47.854;7.944;2022-12-20T04:11:04;6.50;99.90
10247;DHT22;5168;47.854;7.944;2022-12-20T04:13:52;6.50;99.90
10247;DHT22;5168;47.854;7.944;2022-12-20T04:16:23;6.50;99.90
10247;DHT22;5168;47.854;7.944;2022-12-20T04:18:49;6.50;99.90
10247;DHT22;5168;47.854;7.944;2022-12-20T04:21:14;6.50;99.90
10247;DHT22;5168;47.854;7.944;2022-12-20T04:23:42;6.50;99.90
10247;DHT22;5168;47.854;7.944;2022-12-20T04:26:08;6.50;99.90
10247;DHT22;5168;47.854;7.944;2022-12-20T04:28:34;6.50;99.90
10247;DHT22;5168;47.854;7.944;2022-12-20T04:31:00;6.50;99.90
10247;DHT22;5168;47.854;7.944;2022-12-20T04:33:27;6.50;99.90
10247;DHT22;5168;47.854;7.944;2022-12-20T04:35:53;6.50;99.90
10247;DHT22;5168;47.854;7.944;2022-12-20T04:38:19;6.50;99.90
10247;DHT22;5168;47.854;7.944;2022-12-20T04:40:51;6.50;99.90
10247;DHT22;5168;47.854;7.944;2022-12-20T04:43:17;6.50;99.90
10247;DHT22;5168;47.854;7.944;2022-12-20T04:45:46;6.50;99.90
10247;DHT22;5168;47.854;7.944;2022-12-20T04:48:11;6.60;99.90
10247;DHT22;5168;47.854;7.944;2022-12-20T04:50:37;6.60;99.90
10247;DHT22;5168;47.854;7.944;2022-12-20T04:53:03;6.50;99.90
10247;DHT22;5168;47.854;7.944;2022-12-20T04:55:47;6.60;99.90
10247;DHT22;5168;47.854;7.944;2022-12-20T04:58:12;6.50;99.90
10247;DHT22;5168;47.854;7.944;2022-12-20T05:00:38;6.50;99.90
10247;DHT22;5168;47.854;7.944;2022-12-20T05:03:04;6.40;99.90
10247;DHT22;5168;47.854;7.944;2022-12-20T05:05:29;6.40;99.90
10247;DHT22;5168;47.854;7.944;2022-12-20T05:07:55;6.60;99.90
10247;DHT22;5168;47.854;7.944;2022-12-20T05:10:21;6.60;99.90
10247;DHT22;5168;47.854;7.944;2022-12-20T05:12:47;6.60;99.90
10247;DHT22;5168;47.854;7.944;2022-12-20T05:15:12;6.60;99.90
10247;DHT22;5168;47.854;7.944;2022-12-20T05:17:38;6.70;99.90
10247;DHT22;5168;47.854;7.944;2022-12-20T05:20:05;6.40;99.90
10247;DHT22;5168;47.854;7.944;2022-12-20T05:22:30;6.60;99.90
10247;DHT22;5168;47.854;7.944;2022-12-20T05:25:15;6.60;99.90
10247;DHT22;5168;47.854;7.944;2022-12-20T05:27:59;6.60;99.90
10247;DHT22;5168;47.854;7.944;2022-12-20T05:30:25;6.40;99.90
10247;DHT22;5168;47.854;7.944;2022-12-20T05:32:51;6.40;99.90
10247;DHT22;5168;47.854;7.944;2022-12-20T05:35:17;6.40;99.90
10247;DHT22;5168;47.854;7.944;2022-12-20T05:37:43;6.30;99.90
10247;DHT22;5168;47.854;7.944;2022-12-20T05:40:09;6.30;99.90
10247;DHT22;5168;47.854;7.944;2022-12-20T05:42:35;6.30;99.90
10247;DHT22;5168;47.854;7.944;2022-12-20T05:45:01;6.30;99.90
10247;DHT22;5168;47.854;7.944;2022-12-20T05:47:27;6.30;99.90
10247;DHT22;5168;47.854;7.944;2022-12-20T05:49:52;6.30;99.90
10247;DHT22;5168;47.854;7.944;2022-12-20T05:52:20;6.30;99.90
10247;DHT22;5168;47.854;7.944;2022-12-20T05:54:45;6.30;99.90
10247;DHT22;5168;47.854;7.944;2022-12-20T05:57:11;6.20;99.90
10247;DHT22;5168;47.854;7.944;2022-12-20T05:59:36;6.20;99.90
10247;DHT22;5168;47.854;7.944;2022-12-20T06:02:02;6.30;99.90
10247;DHT22;5168;47.854;7.944;2022-12-20T06:04:27;6.20;99.90
10247;DHT22;5168;47.854;7.944;2022-12-20T06:06:53;6.50;99.90
10247;DHT22;5168;47.854;7.944;2022-12-20T06:09:19;6.30;99.90
10247;DHT22;5168;47.854;7.944;2022-12-20T06:11:44;6.30;99.90
10247;DHT22;5168;47.854;7.944;2022-12-20T06:14:11;6.50;99.90
10247;DHT22;5168;47.854;7.944;2022-12-20T06:16:37;6.40;99.90
10247;DHT22;5168;47.854;7.944;2022-12-20T06:19:03;6.40;99.90
10247;DHT22;5168;47.854;7.944;2022-12-20T06:21:28;6.40;99.90
10247;DHT22;5168;47.854;7.944;2022-12-20T06:23:54;6.40;99.90
10247;DHT22;5168;47.854;7.944;2022-12-20T06:26:20;6.70;99.90
10247;DHT22;5168;47.854;7.944;2022-12-20T06:28:48;6.30;99.90
10247;DHT22;5168;47.854;7.944;2022-12-20T06:31:17;6.30;99.90
10247;DHT22;5168;47.854;7.944;2022-12-20T06:33:43;6.30;99.90
10247;DHT22;5168;47.854;7.944;2022-12-20T06:36:09;6.40;99.90
10247;DHT22;5168;47.854;7.944;2022-12-20T06:38:34;6.30;99.90
10247;DHT22;5168;47.854;7.944;2022-12-20T06:41:00;6.30;99.90
10247;DHT22;5168;47.854;7.944;2022-12-20T06:43:25;6.30;99.90
10247;DHT22;5168;47.854;7.944;2022-12-20T06:45:51;6.20;99.90
10247;DHT22;5168;47.854;7.944;2022-12-20T06:48:17;6.10;99.90
10247;DHT22;5168;47.854;7.944;2022-12-20T06:50:42;6.20;99.90
10247;DHT22;5168;47.854;7.944;2022-12-20T06:53:08;6.30;99.90
10247;DHT22;5168;47.854;7.944;2022-12-20T06:55:33;6.40;99.90
10247;DHT22;5168;47.854;7.944;2022-12-20T06:57:59;6.40;99.90
10247;DHT22;5168;47.854;7.944;2022-12-20T07:00:24;6.30;99.90
10247;DHT22;5168;47.854;7.944;2022-12-20T07:02:50;6.30;99.90
10247;DHT22;5168;47.854;7.944;2022-12-20T07:05:15;6.50;99.90
10247;DHT22;5168;47.854;7.944;2022-12-20T07:07:41;6.50;99.90
10247;DHT22;5168;47.854;7.944;2022-12-20T07:10:07;6.60;99.90
10247;DHT22;5168;47.854;7.944;2022-12-20T07:12:33;6.60;99.90
10247;DHT22;5168;47.854;7.944;2022-12-20T07:14:58;6.50;99.90
10247;DHT22;5168;47.854;7.944;2022-12-20T07:17:24;6.60;99.90
10247;DHT22;5168;47.854;7.944;2022-12-20T07:19:50;6.70;99.90
10247;DHT22;5168;47.854;7.944;2022-12-20T07:22:15;6.70;99.90
10247;DHT22;5168;47.854;7.944;2022-12-20T07:24:41;6.80;99.90
10247;DHT22;5168;47.854;7.944;2022-12-20T07:27:06;7.00;99.90
10247;DHT22;5168;47.854;7.944;2022-12-20T07:29:32;6.60;99.90
10247;DHT22;5168;47.854;7.944;2022-12-20T07:31:58;6.60;99.90
10247;DHT22;5168;47.854;7.944;2022-12-20T07:34:23;6.60;99.90
10247;DHT22;5168;47.854;7.944;2022-12-20T07:39:15;6.40;99.90
10247;DHT22;5168;47.854;7.944;2022-12-20T07:41:41;6.50;99.90
10247;DHT22;5168;47.854;7.944;2022-12-20T07:44:06;6.50;99.90
10247;DHT22;5168;47.854;7.944;2022-12-20T07:46:32;6.50;99.90
10247;DHT22;5168;47.854;7.944;2022-12-20T07:48:58;6.50;99.90
10247;DHT22;5168;47.854;7.944;2022-12-20T07:51:26;6.50;99.90
10247;DHT22;5168;47.854;7.944;2022-12-20T07:54:02;6.50;99.90
10247;DHT22;5168;47.854;7.944;2022-12-20T07:56:32;6.50;99.90
10247;DHT22;5168;47.854;7.944;2022-12-20T07:58:59;6.50;99.90
10247;DHT22;5168;47.854;7.944;2022-12-20T08:01:26;6.50;99.90
10247;DHT22;5168;47.854;7.944;2022-12-20T08:04:03;6.60;99.90
10247;DHT22;5168;47.854;7.944;2022-12-20T08:06:30;6.60;99.90
10247;DHT22;5168;47.854;7.944;2022-12-20T08:09:00;6.60;99.90
10247;DHT22;5168;47.854;7.944;2022-12-20T08:11:28;6.60;99.90
10247;DHT22;5168;47.854;7.944;2022-12-20T08:13:55;6.80;99.90
10247;DHT22;5168;47.854;7.944;2022-12-20T08:16:21;6.70;99.90
10247;DHT22;5168;47.854;7.944;2022-12-20T08:18:46;6.90;99.90
10247;DHT22;5168;47.854;7.944;2022-12-20T08:21:12;6.90;99.90
10247;DHT22;5168;47.854;7.944;2022-12-20T08:23:39;6.90;99.90
10247;DHT22;5168;47.854;7.944;2022-12-20T08:26:05;6.90;99.90
10247;DHT22;5168;47.854;7.944;2022-12-20T08:28:30;7.00;99.90
10247;DHT22;5168;47.854;7.944;2022-12-20T08:31:00;7.10;99.90
10247;DHT22;5168;47.854;7.944;2022-12-20T08:33:26;7.10;99.90
10247;DHT22;5168;47.854;7.944;2022-12-20T08:35:59;7.10;99.90
10247;DHT22;5168;47.854;7.944;2022-12-20T08:38:26;7.20;99.90
10247;DHT22;5168;47.854;7.944;2022-12-20T08:40:52;7.50;99.90
10247;DHT22;5168;47.854;7.944;2022-12-20T08:43:17;7.90;99.90
10247;DHT22;5168;47.854;7.944;2022-12-20T08:45:43;7.90;99.90
10247;DHT22;5168;47.854;7.944;2022-12-20T08:48:09;8.00;99.90
10247;DHT22;5168;47.854;7.944;2022-12-20T08:50:34;8.10;99.90
10247;DHT22;5168;47.854;7.944;2022-12-20T08:53:00;8.10;99.90
10247;DHT22;5168;47.854;7.944;2022-12-20T08:55:26;8.10;99.90
10247;DHT22;5168;47.854;7.944;2022-12-20T08:57:51;8.10;99.90
10247;DHT22;5168;47.854;7.944;2022-12-20T09:00:18;8.10;99.90
10247;DHT22;5168;47.854;7.944;2022-12-20T09:02:43;8.10;99.90
10247;DHT22;5168;47.854;7.944;2022-12-20T09:05:09;8.10;99.90
10247;DHT22;5168;47.854;7.944;2022-12-20T09:07:34;8.10;99.90
10247;DHT22;5168;47.854;7.944;2022-12-20T09:10:00;8.20;99.90
10247;DHT22;5168;47.854;7.944;2022-12-20T09:12:26;9.00;99.90
10247;DHT22;5168;47.854;7.944;2022-12-20T09:14:52;8.30;99.90
10247;DHT22;5168;47.854;7.944;2022-12-20T09:17:17;8.30;99.90
10247;DHT22;5168;47.854;7.944;2022-12-20T09:19:43;8.40;99.90
10247;DHT22;5168;47.854;7.944;2022-12-20T09:22:09;8.50;99.90
10247;DHT22;5168;47.854;7.944;2022-12-20T09:24:36;8.50;99.90
10247;DHT22;5168;47.854;7.944;2022-12-20T09:27:02;8.20;99.90
10247;DHT22;5168;47.854;7.944;2022-12-20T09:29:27;8.50;99.90
10247;DHT22;5168;47.854;7.944;2022-12-20T09:31:53;8.60;99.90
10247;DHT22;5168;47.854;7.944;2022-12-20T09:34:18;8.50;99.90
10247;DHT22;5168;47.854;7.944;2022-12-20T09:36:44;8.40;99.90
10247;DHT22;5168;47.854;7.944;2022-12-20T09:39:10;8.40;99.90
10247;DHT22;5168;47.854;7.944;2022-12-20T09:41:40;8.40;99.90
10247;DHT22;5168;47.854;7.944;2022-12-20T09:44:28;8.40;99.90
10247;DHT22;5168;47.854;7.944;2022-12-20T09:47:13;9.00;99.90
10247;DHT22;5168;47.854;7.944;2022-12-20T09:49:44;8.40;99.90
10247;DHT22;5168;47.854;7.944;2022-12-20T09:55:23;8.50;99.90
10247;DHT22;5168;47.854;7.944;2022-12-20T09:58:23;8.60;99.90
10247;DHT22;5168;47.854;7.944;2022-12-20T10:00:51;8.90;99.90
10247;DHT22;5168;47.854;7.944;2022-12-20T10:03:28;8.80;99.90
10247;DHT22;5168;47.854;7.944;2022-12-20T10:06:00;9.20;99.90
10247;DHT22;5168;47.854;7.944;2022-12-20T10:08:51;9.10;99.90
10247;DHT22;5168;47.854;7.944;2022-12-20T10:17:44;9.20;99.90
10247;DHT22;5168;47.854;7.944;2022-12-20T10:20:19;9.70;99.90
10247;DHT22;5168;47.854;7.944;2022-12-20T10:25:55;9.20;99.90
10247;DHT22;5168;47.854;7.944;2022-12-20T10:28:26;9.20;99.90
10247;DHT22;5168;47.854;7.944;2022-12-20T10:30:52;9.30;99.90
10247;DHT22;5168;47.854;7.944;2022-12-20T10:33:22;9.30;99.90
10247;DHT22;5168;47.854;7.944;2022-12-20T10:35:49;9.40;99.90
10247;DHT22;5168;47.854;7.944;2022-12-20T10:38:15;9.40;99.90
10247;DHT22;5168;47.854;7.944;2022-12-20T10:40:48;9.50;99.90
10247;DHT22;5168;47.854;7.944;2022-12-20T10:43:23;9.70;99.90
10247;DHT22;5168;47.854;7.944;2022-12-20T10:45:59;9.90;99.90
10247;DHT22;5168;47.854;7.944;2022-12-20T10:48:40;10.00;99.90
10247;DHT22;5168;47.854;7.944;2022-12-20T10:53:36;10.20;99.90
10247;DHT22;5168;47.854;7.944;2022-12-20T10:59:04;10.70;99.90
10247;DHT22;5168;47.854;7.944;2022-12-20T11:01:48;11.50;99.90
10247;DHT22;5168;47.854;7.944;2022-12-20T11:04:34;12.50;99.90
10247;DHT22;5168;47.854;7.944;2022-12-20T11:07:02;14.50;99.90
10247;DHT22;5168;47.854;7.944;2022-12-20T11:12:15;15.10;99.90
10247;DHT22;5168;47.854;7.944;2022-12-20T11:14:43;15.70;99.90
10247;DHT22;5168;47.854;7.944;2022-12-20T11:17:27;15.70;99.90
10247;DHT22;5168;47.854;7.944;2022-12-20T11:22:59;15.30;99.70
10247;DHT22;5168;47.854;7.944;2022-12-20T11:28:32;14.20;99.70
10247;DHT22;5168;47.854;7.944;2022-12-20T11:31:07;13.60;99.90
10247;DHT22;5168;47.854;7.944;2022-12-20T11:33:44;13.20;99.90
10247;DHT22;5168;47.854;7.944;2022-12-20T11:36:21;12.90;99.90
10247;DHT22;5168;47.854;7.944;2022-12-20T11:39:12;12.60;99.90
10247;DHT22;5168;47.854;7.944;2022-12-20T11:44:44;12.30;99.90
10247;DHT22;5168;47.854;7.944;2022-12-20T11:53:07;12.50;99.90
10247;DHT22;5168;47.854;7.944;2022-12-20T11:55:38;12.50;99.90
10247;DHT22;5168;47.854;7.944;2022-12-20T11:58:16;12.50;99.90
10247;DHT22;5168;47.854;7.944;2022-12-20T12:00:50;12.60;99.90
10247;DHT22;5168;47.854;7.944;2022-12-20T12:03:31;13.30;99.90
10247;DHT22;5168;47.854;7.944;2022-12-20T12:06:08;14.50;99.90
10247;DHT22;5168;47.854;7.944;2022-12-20T12:13:42;16.50;94.60
10247;DHT22;5168;47.854;7.944;2022-12-20T12:18:44;17.20;92.60
10247;DHT22;5168;47.854;7.944;2022-12-20T12:26:51;19.00;86.30
10247;DHT22;5168;47.854;7.944;2022-12-20T12:29:18;19.10;86.80
10247;DHT22;5168;47.854;7.944;2022-12-20T12:45:50;20.50;71.70
10247;DHT22;5168;47.854;7.944;2022-12-20T12:48:34;20.70;71.20
10247;DHT22;5168;47.854;7.944;2022-12-20T12:51:02;20.90;69.20
10247;DHT22;5168;47.854;7.944;2022-12-20T12:53:45;20.90;68.50
10247;DHT22;5168;47.854;7.944;2022-12-20T13:01:56;20.70;67.70
10247;DHT22;5168;47.854;7.944;2022-12-20T13:20:23;17.20;70.70
10247;DHT22;5168;47.854;7.944;2022-12-20T13:25:32;16.20;73.80
10247;DHT22;5168;47.854;7.944;2022-12-20T13:38:53;18.50;69.60
10247;DHT22;5168;47.854;7.944;2022-12-20T13:41:24;18.70;68.50
10247;DHT22;5168;47.854;7.944;2022-12-20T13:43:53;18.80;66.70
10247;DHT22;5168;47.854;7.944;2022-12-20T13:49:01;18.50;67.10
10247;DHT22;5168;47.854;7.944;2022-12-20T13:51:29;18.40;67.30
10247;DHT22;5168;47.854;7.944;2022-12-20T13:58:53;18.40;66.20
10247;DHT22;5168;47.854;7.944;2022-12-20T14:01:22;18.40;66.10
10247;DHT22;5168;47.854;7.944;2022-12-20T14:03:48;18.30;66.10
10247;DHT22;5168;47.854;7.944;2022-12-20T14:06:14;18.30;66.70
10247;DHT22;5168;47.854;7.944;2022-12-20T14:08:46;18.40;66.30
10247;DHT22;5168;47.854;7.944;2022-12-20T14:11:17;18.40;65.90
10247;DHT22;5168;47.854;7.944;2022-12-20T14:13:57;18.20;66.40
10247;DHT22;5168;47.854;7.944;2022-12-20T14:16:24;18.20;66.10
10247;DHT22;5168;47.854;7.944;2022-12-20T14:19:00;17.80;66.50
10247;DHT22;5168;47.854;7.944;2022-12-20T14:21:27;17.10;67.40
10247;DHT22;5168;47.854;7.944;2022-12-20T14:23:55;16.30;68.70
10247;DHT22;5168;47.854;7.944;2022-12-20T14:26:27;15.60;70.30
10247;DHT22;5168;47.854;7.944;2022-12-20T14:28:56;15.40;71.40
10247;DHT22;5168;47.854;7.944;2022-12-20T14:34:03;14.90;72.40
10247;DHT22;5168;47.854;7.944;2022-12-20T14:36:29;14.50;73.10
10247;DHT22;5168;47.854;7.944;2022-12-20T14:38:56;14.10;73.80
10247;DHT22;5168;47.854;7.944;2022-12-20T14:41:39;13.80;74.60
10247;DHT22;5168;47.854;7.944;2022-12-20T14:44:21;13.70;75.10
10247;DHT22;5168;47.854;7.944;2022-12-20T14:47:13;13.70;76.50
10247;DHT22;5168;47.854;7.944;2022-12-20T14:49:39;13.60;76.20
10247;DHT22;5168;47.854;7.944;2022-12-20T14:52:22;13.30;76.50
10247;DHT22;5168;47.854;7.944;2022-12-20T15:13:42;12.10;81.70
10247;DHT22;5168;47.854;7.944;2022-12-20T15:16:21;11.90;82.10
10247;DHT22;5168;47.854;7.944;2022-12-20T15:18:58;11.70;82.90
10247;DHT22;5168;47.854;7.944;2022-12-20T15:21:36;11.70;86.40
10247;DHT22;5168;47.854;7.944;2022-12-20T15:24:04;11.40;85.00
10247;DHT22;5168;47.854;7.944;2022-12-20T15:26:34;11.30;84.80
10247;DHT22;5168;47.854;7.944;2022-12-20T15:29:00;11.30;86.20
10247;DHT22;5168;47.854;7.944;2022-12-20T15:31:26;11.20;86.20
10247;DHT22;5168;47.854;7.944;2022-12-20T15:33:53;11.00;86.80
10247;DHT22;5168;47.854;7.944;2022-12-20T15:36:24;10.90;87.00
10247;DHT22;5168;47.854;7.944;2022-12-20T15:38:54;10.80;86.90
10247;DHT22;5168;47.854;7.944;2022-12-20T15:41:24;10.80;86.50
10247;DHT22;5168;47.854;7.944;2022-12-20T15:43:54;10.70;86.80
10247;DHT22;5168;47.854;7.944;2022-12-20T15:46:20;10.60;87.50
10247;DHT22;5168;47.854;7.944;2022-12-20T15:48:46;10.60;88.00
10247;DHT22;5168;47.854;7.944;2022-12-20T15:51:33;10.60;89.70
10247;DHT22;5168;47.854;7.944;2022-12-20T15:54:00;10.40;89.50
10247;DHT22;5168;47.854;7.944;2022-12-20T15:56:27;10.40;90.50
10247;DHT22;5168;47.854;7.944;2022-12-20T15:58:53;10.30;90.70
10247;DHT22;5168;47.854;7.944;2022-12-20T16:01:26;10.30;90.70
10247;DHT22;5168;47.854;7.944;2022-12-20T16:03:52;10.50;91.50
10247;DHT22;5168;47.854;7.944;2022-12-20T16:06:17;10.40;91.10
10247;DHT22;5168;47.854;7.944;2022-12-20T16:08:43;10.30;91.00
10247;DHT22;5168;47.854;7.944;2022-12-20T16:13:49;10.70;92.80
10247;DHT22;5168;47.854;7.944;2022-12-20T16:16:23;10.30;92.00
10247;DHT22;5168;47.854;7.944;2022-12-20T16:18:49;10.30;92.50
10247;DHT22;5168;47.854;7.944;2022-12-20T16:21:17;10.30;92.80
10247;DHT22;5168;47.854;7.944;2022-12-20T16:23:44;10.20;92.90
10247;DHT22;5168;47.854;7.944;2022-12-20T16:26:14;10.20;93.20
10247;DHT22;5168;47.854;7.944;2022-12-20T16:28:41;10.10;93.60
10247;DHT22;5168;47.854;7.944;2022-12-20T16:31:28;10.10;93.80
10247;DHT22;5168;47.854;7.944;2022-12-20T16:33:55;10.10;94.30
10247;DHT22;5168;47.854;7.944;2022-12-20T16:36:22;10.10;94.60
10247;DHT22;5168;47.854;7.944;2022-12-20T16:38:48;10.20;94.60
10247;DHT22;5168;47.854;7.944;2022-12-20T16:41:17;10.10;94.60
10247;DHT22;5168;47.854;7.944;2022-12-20T16:43:43;10.00;94.70
10247;DHT22;5168;47.854;7.944;2022-12-20T16:46:13;9.90;95.40
10247;DHT22;5168;47.854;7.944;2022-12-20T16:48:41;9.90;95.80
10247;DHT22;5168;47.854;7.944;2022-12-20T16:51:30;9.90;96.20
10247;DHT22;5168;47.854;7.944;2022-12-20T16:54:05;9.80;97.70
10247;DHT22;5168;47.854;7.944;2022-12-20T16:56:32;9.70;96.70
10247;DHT22;5168;47.854;7.944;2022-12-20T16:58:58;9.80;96.90
10247;DHT22;5168;47.854;7.944;2022-12-20T17:01:28;10.20;98.30
10247;DHT22;5168;47.854;7.944;2022-12-20T17:03:54;9.70;98.60
10247;DHT22;5168;47.854;7.944;2022-12-20T17:06:20;9.10;98.30
10247;DHT22;5168;47.854;7.944;2022-12-20T17:08:46;9.60;98.90
10247;DHT22;5168;47.854;7.944;2022-12-20T17:11:23;9.70;99.30
10247;DHT22;5168;47.854;7.944;2022-12-20T17:13:51;9.40;99.90
10247;DHT22;5168;47.854;7.944;2022-12-20T17:16:17;9.10;99.80
10247;DHT22;5168;47.854;7.944;2022-12-20T17:18:44;9.10;99.90
10247;DHT22;5168;47.854;7.944;2022-12-20T17:23:49;9.10;99.60
10247;DHT22;5168;47.854;7.944;2022-12-20T17:26:17;9.20;99.90
10247;DHT22;5168;47.854;7.944;2022-12-20T17:28:44;9.30;99.90
10247;DHT22;5168;47.854;7.944;2022-12-20T17:31:22;9.40;99.90
10247;DHT22;5168;47.854;7.944;2022-12-20T17:33:49;8.80;99.90
10247;DHT22;5168;47.854;7.944;2022-12-20T17:36:14;8.80;99.90
10247;DHT22;5168;47.854;7.944;2022-12-20T17:38:40;9.10;99.90
10247;DHT22;5168;47.854;7.944;2022-12-20T17:41:17;9.20;99.90
10247;DHT22;5168;47.854;7.944;2022-12-20T17:43:45;9.00;99.90
10247;DHT22;5168;47.854;7.944;2022-12-20T17:46:10;9.10;99.90
10247;DHT22;5168;47.854;7.944;2022-12-20T17:48:36;8.50;99.90
10247;DHT22;5168;47.854;7.944;2022-12-20T17:51:02;8.50;99.90
10247;DHT22;5168;47.854;7.944;2022-12-20T17:53:28;8.20;99.90
10247;DHT22;5168;47.854;7.944;2022-12-20T17:55:53;8.60;99.90
10247;DHT22;5168;47.854;7.944;2022-12-20T17:58:19;8.90;99.90
10247;DHT22;5168;47.854;7.944;2022-12-20T18:00:44;8.60;99.90
10247;DHT22;5168;47.854;7.944;2022-12-20T18:03:10;8.60;99.90
10247;DHT22;5168;47.854;7.944;2022-12-20T18:05:39;8.80;99.90
10247;DHT22;5168;47.854;7.944;2022-12-20T18:08:04;8.90;99.90
10247;DHT22;5168;47.854;7.944;2022-12-20T18:10:30;8.20;99.90
10247;DHT22;5168;47.854;7.944;2022-12-20T18:12:56;8.60;99.90
10247;DHT22;5168;47.854;7.944;2022-12-20T18:15:21;8.90;99.90
10247;DHT22;5168;47.854;7.944;2022-12-20T18:17:47;9.00;99.90
10247;DHT22;5168;47.854;7.944;2022-12-20T18:20:13;8.60;99.90
10247;DHT22;5168;47.854;7.944;2022-12-20T18:22:39;8.20;99.90
10247;DHT22;5168;47.854;7.944;2022-12-20T18:25:04;8.80;99.90
10247;DHT22;5168;47.854;7.944;2022-12-20T18:27:37;8.70;99.90
10247;DHT22;5168;47.854;7.944;2022-12-20T18:30:03;8.80;99.90
10247;DHT22;5168;47.854;7.944;2022-12-20T18:32:29;9.10;99.90